createdAt,value
2018-09-30T00:02:04.655Z,57.90
2018-09-30T00:04:32.017Z,57.90
2018-09-30T00:06:59.884Z,57.90
2018-09-30T00:09:30.133Z,58.10
2018-09-30T00:11:58.620Z,58.00
2018-09-30T00:14:26.179Z,58.10
2018-09-30T00:16:53.920Z,58.10
2018-09-30T00:19:21.430Z,58.10
2018-09-30T00:21:48.982Z,58.20
2018-09-30T00:24:22.048Z,58.30
2018-09-30T00:26:55.139Z,58.40
2018-09-30T00:29:22.953Z,58.40
2018-09-30T00:31:50.571Z,58.80
2018-09-30T00:34:23.924Z,59.00
2018-09-30T00:36:51.776Z,59.30
2018-09-30T00:39:19.682Z,59.40
2018-09-30T00:41:47.004Z,59.60
2018-09-30T00:44:14.349Z,59.70
2018-09-30T00:46:41.650Z,59.90
2018-09-30T00:49:09.326Z,60.00
2018-09-30T00:51:36.719Z,60.10
2018-09-30T00:54:04.036Z,60.20
2018-09-30T00:56:31.474Z,60.30
2018-09-30T00:58:58.823Z,60.30
2018-09-30T01:01:26.088Z,60.00
2018-09-30T01:03:53.546Z,59.90
2018-09-30T01:06:21.248Z,60.10
2018-09-30T01:08:48.572Z,60.00
2018-09-30T01:11:15.925Z,60.10
2018-09-30T01:13:43.616Z,60.50
2018-09-30T01:16:11.215Z,60.40
2018-09-30T01:18:38.794Z,60.40
2018-09-30T01:21:06.324Z,60.50
2018-09-30T01:23:34.438Z,60.50
2018-09-30T01:26:02.032Z,60.50
2018-09-30T01:28:29.372Z,60.60
2018-09-30T01:30:56.780Z,60.70
2018-09-30T01:33:24.238Z,60.80
2018-09-30T01:35:51.677Z,60.80
2018-09-30T01:38:19.715Z,60.50
2018-09-30T01:40:46.994Z,60.10
2018-09-30T01:43:14.269Z,60.00
2018-09-30T01:45:41.717Z,60.10
2018-09-30T01:48:09.197Z,59.80
2018-09-30T01:50:37.569Z,59.40
2018-09-30T01:53:05.175Z,59.60
2018-09-30T01:55:32.867Z,59.80
2018-09-30T01:58:00.465Z,60.20
2018-09-30T02:00:27.767Z,60.20
2018-09-30T02:02:55.384Z,60.40
2018-09-30T02:05:22.844Z,60.60
2018-09-30T02:07:50.284Z,60.50
2018-09-30T02:10:18.000Z,60.50
2018-09-30T02:12:45.897Z,60.50
2018-09-30T02:15:13.283Z,60.40
2018-09-30T02:17:41.122Z,60.40
2018-09-30T02:20:08.618Z,60.10
2018-09-30T02:22:36.302Z,60.00
2018-09-30T02:25:03.694Z,60.20
2018-09-30T02:27:31.033Z,60.10
2018-09-30T02:29:58.548Z,60.20
2018-09-30T02:32:25.971Z,60.10
2018-09-30T02:34:53.413Z,60.10
2018-09-30T02:37:20.787Z,60.10
2018-09-30T02:39:48.323Z,61.40
2018-09-30T02:42:15.723Z,61.10
2018-09-30T02:44:43.369Z,61.60
2018-09-30T02:47:10.707Z,61.50
2018-09-30T02:49:38.777Z,61.60
2018-09-30T02:52:06.352Z,61.90
2018-09-30T02:54:34.158Z,61.90
2018-09-30T02:57:01.482Z,62.00
2018-09-30T02:59:28.828Z,61.90
2018-09-30T03:01:56.224Z,61.80
2018-09-30T03:04:23.548Z,61.80
2018-09-30T03:06:56.612Z,61.90
2018-09-30T03:09:23.904Z,61.80
2018-09-30T03:11:51.546Z,62.10
2018-09-30T03:14:18.997Z,62.30
2018-09-30T03:16:46.689Z,62.50
2018-09-30T03:19:14.518Z,62.60
2018-09-30T03:21:42.026Z,62.80
2018-09-30T03:24:10.105Z,62.90
2018-09-30T03:26:37.654Z,62.90
2018-09-30T03:29:05.029Z,62.90
2018-09-30T03:31:32.331Z,62.80
2018-09-30T03:33:59.596Z,62.70
2018-09-30T03:36:27.345Z,62.30
2018-09-30T03:38:54.756Z,61.90
2018-09-30T03:41:22.215Z,61.70
2018-09-30T03:43:49.783Z,62.00
2018-09-30T03:46:17.554Z,62.10
2018-09-30T03:48:44.958Z,62.90
2018-09-30T03:51:12.401Z,62.70
2018-09-30T03:53:39.840Z,62.50
2018-09-30T03:56:07.246Z,62.50
2018-09-30T03:58:34.711Z,62.40
2018-09-30T04:01:02.036Z,62.30
2018-09-30T04:03:29.790Z,62.80
2018-09-30T04:05:57.350Z,62.80
2018-09-30T04:08:25.176Z,62.80
2018-09-30T04:10:52.595Z,62.80
2018-09-30T04:13:20.365Z,62.80
2018-09-30T04:15:48.143Z,62.80
2018-09-30T04:18:15.780Z,62.90
2018-09-30T04:20:43.141Z,62.70
2018-09-30T04:23:10.567Z,62.80
2018-09-30T04:25:38.040Z,63.10
2018-09-30T04:28:05.696Z,63.20
2018-09-30T04:30:33.154Z,63.20
2018-09-30T04:33:00.819Z,63.60
2018-09-30T04:35:28.261Z,63.30
2018-09-30T04:37:55.583Z,63.40
2018-09-30T04:40:23.405Z,63.10
2018-09-30T04:42:50.719Z,62.60
2018-09-30T04:45:18.059Z,62.80
2018-09-30T04:47:45.725Z,62.70
2018-09-30T04:50:13.255Z,62.70
2018-09-30T04:52:40.804Z,62.70
2018-09-30T04:55:08.574Z,62.70
2018-09-30T04:57:36.373Z,62.70
2018-09-30T05:00:04.210Z,62.70
2018-09-30T05:02:32.053Z,62.80
2018-09-30T05:04:59.477Z,62.80
2018-09-30T05:07:26.935Z,62.70
2018-09-30T05:09:54.401Z,63.00
2018-09-30T05:12:21.770Z,62.70
2018-09-30T05:14:49.220Z,62.70
2018-09-30T05:17:16.746Z,62.90
2018-09-30T05:19:44.144Z,62.70
2018-09-30T05:22:11.626Z,62.70
2018-09-30T05:24:38.941Z,62.70
2018-09-30T05:27:06.580Z,62.50
2018-09-30T05:29:33.919Z,62.40
2018-09-30T05:32:01.205Z,62.20
2018-09-30T05:34:28.664Z,62.20
2018-09-30T05:36:56.012Z,62.30
2018-09-30T05:39:23.462Z,62.10
2018-09-30T05:41:50.918Z,62.00
2018-09-30T05:44:18.310Z,62.00
2018-09-30T05:46:45.727Z,61.70
2018-09-30T05:49:13.411Z,61.40
2018-09-30T05:51:41.094Z,61.60
2018-09-30T05:54:08.564Z,61.30
2018-09-30T05:56:36.480Z,61.10
2018-09-30T05:59:03.887Z,61.30
2018-09-30T06:01:31.289Z,61.20
2018-09-30T06:03:58.918Z,60.90
2018-09-30T06:06:26.645Z,61.00
2018-09-30T06:08:54.237Z,61.10
2018-09-30T06:11:22.188Z,61.90
2018-09-30T06:13:49.568Z,61.80
2018-09-30T06:16:17.693Z,60.30
2018-09-30T06:18:45.642Z,59.90
2018-09-30T06:21:13.289Z,59.90
2018-09-30T06:23:41.234Z,59.80
2018-09-30T06:26:08.990Z,59.50
2018-09-30T06:28:36.904Z,59.70
2018-09-30T06:31:04.306Z,59.70
2018-09-30T06:33:31.639Z,59.50
2018-09-30T06:35:58.970Z,59.60
2018-09-30T06:38:26.404Z,59.30
2018-09-30T06:40:53.926Z,59.00
2018-09-30T06:43:21.341Z,58.80
2018-09-30T06:45:48.898Z,58.90
2018-09-30T06:48:16.187Z,58.70
2018-09-30T06:50:43.731Z,59.00
2018-09-30T06:53:11.097Z,58.40
2018-09-30T06:55:38.674Z,58.30
2018-09-30T06:58:06.174Z,58.30
2018-09-30T07:00:33.759Z,57.80
2018-09-30T07:03:01.566Z,57.90
2018-09-30T07:05:28.945Z,57.60
2018-09-30T07:07:56.270Z,57.60
2018-09-30T07:10:23.973Z,57.70
2018-09-30T07:12:51.743Z,57.20
2018-09-30T07:15:19.170Z,56.90
2018-09-30T07:17:46.538Z,56.90
2018-09-30T07:20:14.240Z,56.80
2018-09-30T07:22:41.606Z,56.60
2018-09-30T07:25:09.063Z,56.40
2018-09-30T07:27:36.509Z,56.50
2018-09-30T07:30:04.157Z,56.40
2018-09-30T07:32:31.696Z,56.50
2018-09-30T07:35:00.403Z,56.20
2018-09-30T07:37:28.152Z,56.30
2018-09-30T07:39:55.526Z,56.30
2018-09-30T07:42:22.851Z,56.10
2018-09-30T07:44:50.346Z,56.00
2018-09-30T07:47:21.637Z,55.80
2018-09-30T07:49:49.111Z,55.50
2018-09-30T07:52:16.634Z,55.40
2018-09-30T07:54:44.351Z,55.40
2018-09-30T07:57:11.798Z,55.40
2018-09-30T07:59:39.253Z,55.30
2018-09-30T08:02:06.916Z,55.10
2018-09-30T08:04:34.457Z,55.10
2018-09-30T08:07:02.184Z,54.90
2018-09-30T08:09:29.868Z,54.80
2018-09-30T08:11:57.645Z,54.40
2018-09-30T08:14:25.125Z,53.80
2018-09-30T08:16:52.984Z,53.90
2018-09-30T08:19:21.430Z,53.90
2018-09-30T08:21:49.126Z,53.90
2018-09-30T08:24:16.596Z,53.50
2018-09-30T08:26:44.136Z,53.60
2018-09-30T08:29:11.828Z,53.30
2018-09-30T08:31:39.219Z,53.40
2018-09-30T08:34:06.671Z,51.90
2018-09-30T08:36:34.946Z,51.50
2018-09-30T08:39:02.950Z,51.40
2018-09-30T08:41:30.232Z,51.40
2018-09-30T08:43:57.726Z,51.40
2018-09-30T08:46:25.288Z,51.30
2018-09-30T08:48:52.652Z,50.90
2018-09-30T08:51:20.202Z,50.40
2018-09-30T08:53:47.746Z,50.20
2018-09-30T08:56:15.230Z,50.50
2018-09-30T08:58:42.568Z,50.10
2018-09-30T09:01:10.118Z,50.70
2018-09-30T09:03:37.645Z,49.70
2018-09-30T09:06:05.443Z,49.60
2018-09-30T09:08:32.952Z,49.50
2018-09-30T09:11:00.256Z,49.60
2018-09-30T09:13:27.698Z,50.10
2018-09-30T09:15:55.023Z,49.50
2018-09-30T09:18:22.356Z,48.50
2018-09-30T09:20:50.125Z,48.70
2018-09-30T09:23:17.474Z,48.90
2018-09-30T09:25:44.996Z,48.70
2018-09-30T09:28:12.315Z,48.50
2018-09-30T09:30:40.103Z,48.30
2018-09-30T09:33:07.691Z,47.60
2018-09-30T09:35:35.112Z,48.30
2018-09-30T09:38:02.389Z,48.10
2018-09-30T09:40:29.639Z,48.00
2018-09-30T09:42:56.986Z,47.40
2018-09-30T09:45:24.415Z,47.40
2018-09-30T09:47:51.974Z,47.60
2018-09-30T09:50:19.418Z,47.10
2018-09-30T09:52:47.078Z,46.90
2018-09-30T09:55:14.485Z,47.30
2018-09-30T09:57:42.003Z,47.40
2018-09-30T10:00:10.029Z,47.20
2018-09-30T10:02:37.798Z,46.30
2018-09-30T10:05:05.470Z,45.30
2018-09-30T10:07:33.090Z,45.20
2018-09-30T10:10:00.439Z,45.20
2018-09-30T10:12:27.688Z,45.40
2018-09-30T10:14:54.908Z,45.00
2018-09-30T10:17:22.284Z,44.60
2018-09-30T10:19:49.658Z,44.20
2018-09-30T10:22:17.283Z,44.20
2018-09-30T10:24:44.767Z,43.80
2018-09-30T10:27:12.089Z,43.40
2018-09-30T10:29:39.401Z,43.50
2018-09-30T10:32:07.169Z,43.70
2018-09-30T10:34:34.609Z,43.40
2018-09-30T10:37:01.876Z,43.20
2018-09-30T10:39:29.340Z,42.50
2018-09-30T10:41:56.495Z,42.30
2018-09-30T10:44:23.623Z,41.90
2018-09-30T10:46:50.752Z,41.90
2018-09-30T10:49:17.975Z,41.40
2018-09-30T10:51:45.417Z,41.60
2018-09-30T10:54:12.572Z,41.20
2018-09-30T10:56:39.772Z,41.30
2018-09-30T10:59:06.960Z,40.60
2018-09-30T11:01:34.181Z,40.60
2018-09-30T11:04:01.285Z,40.30
2018-09-30T11:06:28.463Z,40.20
2018-09-30T11:08:55.581Z,39.80
2018-09-30T11:11:23.020Z,40.20
2018-09-30T11:13:50.499Z,40.10
2018-09-30T11:16:17.631Z,39.70
2018-09-30T11:18:44.936Z,39.60
2018-09-30T11:21:12.489Z,38.30
2018-09-30T11:23:39.757Z,38.80
2018-09-30T11:26:06.978Z,39.30
2018-09-30T11:28:34.184Z,39.30
2018-09-30T11:31:01.441Z,39.50
2018-09-30T11:33:28.586Z,39.10
2018-09-30T11:35:55.710Z,39.00
2018-09-30T11:38:22.910Z,38.80
2018-09-30T11:40:50.469Z,39.10
2018-09-30T11:43:18.025Z,38.60
2018-09-30T11:45:45.367Z,38.70
2018-09-30T11:48:12.798Z,38.00
2018-09-30T11:50:40.321Z,37.90
2018-09-30T11:53:07.721Z,37.30
2018-09-30T11:55:35.269Z,37.60
2018-09-30T11:58:02.601Z,37.50
2018-09-30T12:00:29.766Z,37.40
2018-09-30T12:02:56.911Z,36.80
2018-09-30T12:05:24.638Z,37.00
2018-09-30T12:07:52.056Z,37.60
2018-09-30T12:10:19.277Z,37.10
2018-09-30T12:12:46.441Z,37.20
2018-09-30T12:15:13.617Z,37.60
2018-09-30T12:17:41.009Z,37.70
2018-09-30T12:20:08.427Z,37.90
2018-09-30T12:22:35.613Z,38.30
2018-09-30T12:25:02.713Z,38.20
2018-09-30T12:27:29.863Z,38.30
2018-09-30T12:29:56.996Z,38.60
2018-09-30T12:32:24.513Z,38.80
2018-09-30T12:34:51.931Z,38.50
2018-09-30T12:37:19.416Z,37.80
2018-09-30T12:39:46.987Z,37.60
2018-09-30T12:42:14.365Z,37.40
2018-09-30T12:44:41.538Z,37.40
2018-09-30T12:47:08.878Z,36.90
2018-09-30T12:49:36.353Z,37.10
2018-09-30T12:52:03.856Z,36.90
2018-09-30T12:54:31.148Z,36.20
2018-09-30T12:56:58.828Z,35.90
2018-09-30T12:59:25.963Z,35.60
2018-09-30T13:01:53.370Z,35.80
2018-09-30T13:04:20.799Z,35.60
2018-09-30T13:06:48.231Z,35.60
2018-09-30T13:09:15.291Z,36.00
2018-09-30T13:11:42.500Z,36.00
2018-09-30T13:14:09.775Z,36.00
2018-09-30T13:16:37.006Z,36.20
2018-09-30T13:19:04.129Z,36.30
2018-09-30T13:21:31.523Z,35.90
2018-09-30T13:23:58.868Z,35.70
2018-09-30T13:26:26.206Z,35.80
2018-09-30T13:28:53.766Z,35.60
2018-09-30T13:31:21.393Z,35.90
2018-09-30T13:33:49.089Z,36.30
2018-09-30T13:36:16.428Z,37.00
2018-09-30T13:38:44.014Z,36.70
2018-09-30T13:41:11.348Z,36.50
2018-09-30T13:43:38.947Z,36.20
2018-09-30T13:46:06.654Z,36.30
2018-09-30T13:48:34.079Z,36.70
2018-09-30T13:51:01.587Z,36.60
2018-09-30T13:53:28.962Z,37.00
2018-09-30T13:55:56.365Z,36.20
2018-09-30T13:58:23.698Z,36.60
2018-09-30T14:00:50.961Z,36.50
2018-09-30T14:03:18.519Z,36.80
2018-09-30T14:05:45.893Z,36.80
2018-09-30T14:08:13.047Z,36.70
2018-09-30T14:10:40.489Z,36.50
2018-09-30T14:13:08.004Z,35.90
2018-09-30T14:15:35.176Z,36.20
2018-09-30T14:18:02.359Z,36.30
2018-09-30T14:20:29.648Z,35.90
2018-09-30T14:22:56.796Z,36.00
2018-09-30T14:25:24.158Z,35.90
2018-09-30T14:27:51.627Z,36.20
2018-09-30T14:30:19.185Z,36.30
2018-09-30T14:32:46.478Z,35.80
2018-09-30T14:35:13.977Z,35.80
2018-09-30T14:37:41.092Z,36.00
2018-09-30T14:40:08.760Z,35.30
2018-09-30T14:42:35.935Z,35.30
2018-09-30T14:45:03.361Z,35.00
2018-09-30T14:47:30.847Z,35.20
2018-09-30T14:49:58.290Z,35.30
2018-09-30T14:52:25.714Z,34.90
2018-09-30T14:54:53.241Z,34.70
2018-09-30T14:57:21.446Z,35.00
2018-09-30T14:59:49.018Z,34.80
2018-09-30T15:02:16.073Z,35.00
2018-09-30T15:04:44.225Z,35.20
2018-09-30T15:07:12.594Z,34.30
2018-09-30T15:09:39.995Z,34.00
2018-09-30T15:12:07.497Z,34.40
2018-09-30T15:14:35.440Z,34.80
2018-09-30T15:17:02.861Z,35.00
2018-09-30T15:19:30.137Z,35.30
2018-09-30T15:21:57.679Z,35.40
2018-09-30T15:24:25.142Z,35.40
2018-09-30T15:26:53.366Z,35.60
2018-09-30T15:29:20.657Z,35.50
2018-09-30T15:31:48.173Z,35.50
2018-09-30T15:34:16.325Z,35.50
2018-09-30T15:36:43.764Z,35.70
2018-09-30T15:39:12.020Z,36.10
2018-09-30T15:41:39.671Z,35.70
2018-09-30T15:44:06.780Z,35.00
2018-09-30T15:46:34.063Z,35.10
2018-09-30T15:49:02.384Z,35.30
2018-09-30T15:51:29.590Z,35.50
2018-09-30T15:53:56.780Z,35.40
2018-09-30T15:56:24.335Z,35.50
2018-09-30T15:58:51.756Z,36.30
2018-09-30T16:01:19.190Z,35.40
2018-09-30T16:03:46.445Z,36.20
2018-09-30T16:06:13.856Z,35.20
2018-09-30T16:08:40.979Z,35.70
2018-09-30T16:11:08.220Z,35.60
2018-09-30T16:13:35.445Z,35.60
2018-09-30T16:16:02.710Z,35.60
2018-09-30T16:18:29.985Z,35.70
2018-09-30T16:20:57.328Z,36.00
2018-09-30T16:23:24.861Z,36.00
2018-09-30T16:25:52.175Z,36.40
2018-09-30T16:28:20.502Z,36.50
2018-09-30T16:30:48.736Z,37.10
2018-09-30T16:33:16.966Z,36.50
2018-09-30T16:35:46.409Z,36.70
2018-09-30T16:38:13.949Z,36.90
2018-09-30T16:40:46.730Z,36.90
2018-09-30T16:43:24.435Z,37.10
2018-09-30T16:45:51.866Z,37.30
2018-09-30T16:48:26.121Z,37.60
2018-09-30T16:50:53.804Z,37.80
2018-09-30T16:53:23.130Z,38.00
2018-09-30T16:55:51.319Z,38.10
2018-09-30T16:58:18.814Z,38.40
2018-09-30T17:00:46.396Z,38.60
2018-09-30T17:03:14.799Z,38.80
2018-09-30T17:05:42.301Z,39.20
2018-09-30T17:08:10.969Z,39.40
2018-09-30T17:10:38.253Z,39.50
2018-09-30T17:13:06.074Z,39.70
2018-09-30T17:15:33.699Z,39.80
2018-09-30T17:18:01.081Z,39.90
2018-09-30T17:20:28.626Z,40.10
2018-09-30T17:22:56.039Z,40.30
2018-09-30T17:25:23.211Z,40.50
2018-09-30T17:27:50.534Z,40.60
2018-09-30T17:30:18.742Z,40.70
2018-09-30T17:33:02.229Z,40.70
2018-09-30T17:35:30.593Z,40.90
2018-09-30T17:37:58.046Z,41.20
2018-09-30T17:40:25.339Z,41.20
2018-09-30T17:42:52.838Z,41.20
2018-09-30T17:45:20.342Z,41.30
2018-09-30T17:47:47.860Z,41.70
2018-09-30T17:50:15.248Z,41.90
2018-09-30T17:52:42.686Z,42.20
2018-09-30T17:55:10.186Z,42.50
2018-09-30T17:57:37.627Z,42.70
2018-09-30T18:00:04.789Z,43.00
2018-09-30T18:02:32.448Z,43.10
2018-09-30T18:05:00.006Z,43.10
2018-09-30T18:07:27.479Z,43.20
2018-09-30T18:09:54.974Z,43.80
2018-09-30T18:12:22.552Z,43.90
2018-09-30T18:14:53.435Z,44.10
2018-09-30T18:17:20.927Z,44.30
2018-09-30T18:19:48.428Z,44.30
2018-09-30T18:22:15.732Z,44.40
2018-09-30T18:24:43.037Z,44.50
2018-09-30T18:27:10.345Z,44.40
2018-09-30T18:29:38.778Z,44.30
2018-09-30T18:32:09.821Z,44.20
2018-09-30T18:34:37.263Z,44.30
2018-09-30T18:37:04.986Z,44.30
2018-09-30T18:39:34.226Z,44.30
2018-09-30T18:42:01.686Z,44.30
2018-09-30T18:44:29.262Z,44.40
2018-09-30T18:46:58.744Z,44.40
2018-09-30T18:49:26.035Z,44.40
2018-09-30T18:51:53.654Z,44.50
2018-09-30T18:54:30.859Z,44.40
2018-09-30T18:56:58.491Z,44.60
2018-09-30T18:59:26.251Z,44.70
2018-09-30T19:01:53.620Z,44.60
2018-09-30T19:04:24.405Z,44.60
2018-09-30T19:06:51.931Z,44.60
2018-09-30T19:09:19.363Z,44.80
2018-09-30T19:11:46.813Z,44.70
2018-09-30T19:14:14.242Z,44.90
2018-09-30T19:16:41.699Z,44.90
2018-09-30T19:19:09.361Z,45.00
2018-09-30T19:21:36.782Z,44.90
2018-09-30T19:24:04.079Z,45.10
2018-09-30T19:26:31.585Z,45.10
2018-09-30T19:28:58.826Z,45.50
2018-09-30T19:31:26.231Z,45.50
2018-09-30T19:33:53.585Z,45.60
2018-09-30T19:36:21.060Z,46.00
2018-09-30T19:38:48.449Z,46.10
2018-09-30T19:41:15.871Z,46.20
2018-09-30T19:43:43.529Z,46.70
2018-09-30T19:46:11.529Z,47.10
2018-09-30T19:48:38.745Z,47.00
2018-09-30T19:51:06.255Z,47.00
2018-09-30T19:53:33.745Z,47.20
2018-09-30T19:56:01.284Z,47.40
2018-09-30T19:58:28.510Z,47.60
2018-09-30T20:00:56.914Z,47.70
2018-09-30T20:03:24.248Z,48.00
2018-09-30T20:05:52.505Z,48.30
2018-09-30T20:08:24.564Z,48.40
2018-09-30T20:10:51.869Z,48.50
2018-09-30T20:13:19.083Z,48.80
2018-09-30T20:15:48.683Z,48.90
2018-09-30T20:18:16.042Z,49.10
2018-09-30T20:20:43.452Z,49.50
2018-09-30T20:23:12.910Z,49.60
2018-09-30T20:25:47.862Z,50.00
2018-09-30T20:28:18.902Z,50.40
2018-09-30T20:30:46.464Z,50.60
2018-09-30T20:33:19.707Z,51.10
2018-09-30T20:35:47.216Z,51.40
2018-09-30T20:38:14.498Z,51.60
2018-09-30T20:40:42.134Z,51.90
2018-09-30T20:43:09.444Z,52.10
2018-09-30T20:45:37.608Z,53.00
2018-09-30T20:48:07.490Z,53.30
2018-09-30T20:50:36.752Z,53.70
2018-09-30T20:53:04.255Z,54.00
2018-09-30T20:55:32.267Z,54.10
2018-09-30T20:57:59.468Z,54.40
2018-09-30T21:00:39.153Z,54.50
2018-09-30T21:03:06.777Z,54.80
2018-09-30T21:06:39.207Z,55.00
2018-09-30T21:09:09.180Z,55.30
2018-09-30T21:11:38.789Z,56.00
2018-09-30T21:14:06.166Z,56.10
2018-09-30T21:16:33.660Z,56.30
2018-09-30T21:19:01.343Z,56.50
2018-09-30T21:21:28.917Z,56.50
2018-09-30T21:23:56.350Z,56.60
2018-09-30T21:26:23.576Z,56.90
2018-09-30T21:28:50.805Z,57.20
2018-09-30T21:31:18.455Z,57.20
2018-09-30T21:33:45.768Z,57.60
2018-09-30T21:36:13.267Z,57.60
2018-09-30T21:38:40.786Z,57.80
2018-09-30T21:41:09.905Z,57.90
2018-09-30T21:43:37.418Z,58.10
2018-09-30T21:46:06.739Z,58.30
2018-09-30T21:48:34.257Z,58.50
2018-09-30T21:51:01.820Z,58.60
2018-09-30T21:53:29.250Z,58.60
2018-09-30T21:55:57.768Z,59.00
2018-09-30T21:58:26.070Z,59.00
2018-09-30T22:00:59.514Z,59.40
2018-09-30T22:03:27.530Z,59.50
2018-09-30T22:05:55.802Z,59.90
2018-09-30T22:08:23.238Z,59.70
2018-09-30T22:10:50.815Z,59.70
2018-09-30T22:13:18.305Z,59.70
2018-09-30T22:15:45.717Z,59.90
2018-09-30T22:18:13.075Z,60.20
2018-09-30T22:20:40.610Z,60.30
2018-09-30T22:23:07.941Z,60.70
2018-09-30T22:25:35.425Z,61.00
2018-09-30T22:28:02.918Z,61.20
2018-09-30T22:30:30.536Z,61.40
2018-09-30T22:32:57.853Z,61.40
2018-09-30T22:35:25.215Z,61.50
2018-09-30T22:37:52.820Z,61.60
2018-09-30T22:40:20.211Z,62.10
2018-09-30T22:42:48.042Z,62.00
2018-09-30T22:45:15.500Z,61.70
2018-09-30T22:47:42.724Z,61.90
2018-09-30T22:50:10.101Z,62.00
2018-09-30T22:52:37.353Z,62.40
2018-09-30T22:55:04.990Z,62.40
2018-09-30T22:57:32.466Z,62.50
2018-09-30T23:00:00.122Z,62.60
2018-09-30T23:02:28.604Z,62.90
2018-09-30T23:04:56.832Z,63.00
2018-09-30T23:07:24.403Z,63.40
2018-09-30T23:09:51.760Z,63.50
2018-09-30T23:12:19.137Z,63.70
2018-09-30T23:14:46.278Z,63.70
2018-09-30T23:17:13.710Z,63.50
2018-09-30T23:19:41.147Z,63.40
2018-09-30T23:22:08.657Z,62.90
2018-09-30T23:24:35.975Z,62.40
2018-09-30T23:27:03.273Z,62.00
2018-09-30T23:29:30.786Z,61.60
2018-09-30T23:31:57.970Z,61.30
2018-09-30T23:34:25.151Z,61.20
2018-09-30T23:36:52.480Z,61.00
2018-09-30T23:39:19.782Z,61.00
2018-09-30T23:41:46.913Z,60.90
2018-09-30T23:44:14.350Z,60.70
2018-09-30T23:46:41.710Z,60.60
2018-09-30T23:49:09.272Z,60.20
2018-09-30T23:51:36.696Z,60.10
2018-09-30T23:54:03.826Z,59.90
2018-09-30T23:56:30.975Z,59.70
2018-09-30T23:58:58.059Z,59.40
